Аэропорт: Игнатьево. Благовещенск

ICAO: UHBB

METAR:
2018/09/19 07:30
UHBB 190730Z 06002MPS 9999 FEW033 21/02 Q1012 R36/090060 NOSIG RMK QFE742/0989
METAR:
2018/09/19 06:00
TAF UHBB 190450Z 1906/2006 01003MPS 9999 SCT030 
      BECMG 1909/1911 21003MPS